sensor_id;sensor_type;location;lat;lon;timestamp;P1;durP1;ratioP1;P2;durP2;ratioP2
79759;SDS011;69248;42.138;24.742;2023-05-07T00:00:12;8.15;;;5.37;;
79759;SDS011;69248;42.138;24.742;2023-05-07T00:02:41;9.03;;;6.08;;
79759;SDS011;69248;42.138;24.742;2023-05-07T00:05:10;7.10;;;4.67;;
79759;SDS011;69248;42.138;24.742;2023-05-07T00:07:37;9.05;;;5.65;;
79759;SDS011;69248;42.138;24.742;2023-05-07T00:10:06;10.50;;;6.12;;
79759;SDS011;69248;42.138;24.742;2023-05-07T00:12:34;10.00;;;6.30;;
79759;SDS011;69248;42.138;24.742;2023-05-07T00:15:02;7.17;;;4.95;;
79759;SDS011;69248;42.138;24.742;2023-05-07T00:17:30;17.32;;;6.70;;
79759;SDS011;69248;42.138;24.742;2023-05-07T00:19:57;10.00;;;6.30;;
79759;SDS011;69248;42.138;24.742;2023-05-07T00:22:25;9.08;;;6.45;;
79759;SDS011;69248;42.138;24.742;2023-05-07T00:24:52;10.15;;;5.67;;
79759;SDS011;69248;42.138;24.742;2023-05-07T00:27:20;7.58;;;5.03;;
79759;SDS011;69248;42.138;24.742;2023-05-07T00:29:48;5.35;;;4.70;;
79759;SDS011;69248;42.138;24.742;2023-05-07T00:32:15;8.88;;;5.75;;
79759;SDS011;69248;42.138;24.742;2023-05-07T00:34:43;7.55;;;5.15;;
79759;SDS011;69248;42.138;24.742;2023-05-07T00:37:11;6.35;;;4.17;;
79759;SDS011;69248;42.138;24.742;2023-05-07T00:39:38;7.53;;;5.75;;
79759;SDS011;69248;42.138;24.742;2023-05-07T00:42:06;10.82;;;5.78;;
79759;SDS011;69248;42.138;24.742;2023-05-07T00:44:33;7.87;;;5.72;;
79759;SDS011;69248;42.138;24.742;2023-05-07T00:47:01;12.88;;;6.42;;
79759;SDS011;69248;42.138;24.742;2023-05-07T00:49:37;7.85;;;5.90;;
79759;SDS011;69248;42.138;24.742;2023-05-07T00:52:07;9.83;;;6.60;;
79759;SDS011;69248;42.138;24.742;2023-05-07T00:54:38;11.53;;;5.92;;
79759;SDS011;69248;42.138;24.742;2023-05-07T00:57:06;11.22;;;6.40;;
79759;SDS011;69248;42.138;24.742;2023-05-07T00:59:38;8.10;;;5.42;;
79759;SDS011;69248;42.138;24.742;2023-05-07T01:02:06;10.38;;;5.15;;
79759;SDS011;69248;42.138;24.742;2023-05-07T01:04:34;11.50;;;5.70;;
79759;SDS011;69248;42.138;24.742;2023-05-07T01:07:02;9.68;;;5.95;;
79759;SDS011;69248;42.138;24.742;2023-05-07T01:09:30;8.85;;;6.05;;
79759;SDS011;69248;42.138;24.742;2023-05-07T01:11:58;9.05;;;4.65;;
79759;SDS011;69248;42.138;24.742;2023-05-07T01:14:26;9.40;;;6.30;;
79759;SDS011;69248;42.138;24.742;2023-05-07T01:16:55;9.65;;;5.95;;
79759;SDS011;69248;42.138;24.742;2023-05-07T01:19:23;9.65;;;5.78;;
79759;SDS011;69248;42.138;24.742;2023-05-07T01:21:50;9.70;;;5.92;;
79759;SDS011;69248;42.138;24.742;2023-05-07T01:24:19;10.85;;;6.40;;
79759;SDS011;69248;42.138;24.742;2023-05-07T01:26:47;13.60;;;5.90;;
79759;SDS011;69248;42.138;24.742;2023-05-07T01:29:15;7.78;;;5.53;;
79759;SDS011;69248;42.138;24.742;2023-05-07T01:31:42;10.60;;;6.78;;
79759;SDS011;69248;42.138;24.742;2023-05-07T01:34:10;14.20;;;6.67;;
79759;SDS011;69248;42.138;24.742;2023-05-07T01:36:41;6.87;;;6.17;;
79759;SDS011;69248;42.138;24.742;2023-05-07T01:39:10;13.13;;;6.37;;
79759;SDS011;69248;42.138;24.742;2023-05-07T01:41:39;10.98;;;5.92;;
79759;SDS011;69248;42.138;24.742;2023-05-07T01:44:07;13.72;;;7.03;;
79759;SDS011;69248;42.138;24.742;2023-05-07T01:46:36;12.18;;;6.50;;
79759;SDS011;69248;42.138;24.742;2023-05-07T01:49:04;7.62;;;5.60;;
79759;SDS011;69248;42.138;24.742;2023-05-07T01:51:31;12.25;;;7.12;;
79759;SDS011;69248;42.138;24.742;2023-05-07T01:54:00;10.53;;;6.47;;
79759;SDS011;69248;42.138;24.742;2023-05-07T01:56:27;10.30;;;5.00;;
79759;SDS011;69248;42.138;24.742;2023-05-07T01:58:55;8.58;;;5.90;;
79759;SDS011;69248;42.138;24.742;2023-05-07T02:01:22;12.88;;;6.45;;
79759;SDS011;69248;42.138;24.742;2023-05-07T02:03:50;8.95;;;6.50;;
79759;SDS011;69248;42.138;24.742;2023-05-07T02:06:17;8.43;;;5.78;;
79759;SDS011;69248;42.138;24.742;2023-05-07T02:08:45;7.22;;;5.50;;
79759;SDS011;69248;42.138;24.742;2023-05-07T02:11:13;5.17;;;4.35;;
79759;SDS011;69248;42.138;24.742;2023-05-07T02:13:41;14.15;;;6.47;;
79759;SDS011;69248;42.138;24.742;2023-05-07T02:16:08;12.75;;;6.60;;
79759;SDS011;69248;42.138;24.742;2023-05-07T02:18:36;9.85;;;6.30;;
79759;SDS011;69248;42.138;24.742;2023-05-07T02:21:04;7.83;;;6.03;;
79759;SDS011;69248;42.138;24.742;2023-05-07T02:23:31;12.88;;;7.03;;
79759;SDS011;69248;42.138;24.742;2023-05-07T02:25:59;18.82;;;7.85;;
79759;SDS011;69248;42.138;24.742;2023-05-07T02:28:26;15.60;;;7.05;;
79759;SDS011;69248;42.138;24.742;2023-05-07T02:30:54;8.40;;;6.90;;
79759;SDS011;69248;42.138;24.742;2023-05-07T02:33:23;8.83;;;5.40;;
79759;SDS011;69248;42.138;24.742;2023-05-07T02:35:51;9.83;;;6.62;;
79759;SDS011;69248;42.138;24.742;2023-05-07T02:38:18;7.47;;;5.80;;
79759;SDS011;69248;42.138;24.742;2023-05-07T02:40:46;6.08;;;4.92;;
79759;SDS011;69248;42.138;24.742;2023-05-07T02:43:13;8.90;;;5.72;;
79759;SDS011;69248;42.138;24.742;2023-05-07T02:45:41;10.65;;;6.08;;
79759;SDS011;69248;42.138;24.742;2023-05-07T02:48:08;11.53;;;6.08;;
79759;SDS011;69248;42.138;24.742;2023-05-07T02:50:36;16.77;;;9.05;;
79759;SDS011;69248;42.138;24.742;2023-05-07T02:53:04;9.68;;;7.50;;
79759;SDS011;69248;42.138;24.742;2023-05-07T02:55:31;10.53;;;8.43;;
79759;SDS011;69248;42.138;24.742;2023-05-07T02:57:59;14.60;;;9.38;;
79759;SDS011;69248;42.138;24.742;2023-05-07T03:00:26;15.53;;;9.80;;
79759;SDS011;69248;42.138;24.742;2023-05-07T03:02:54;12.63;;;8.43;;
79759;SDS011;69248;42.138;24.742;2023-05-07T03:05:21;13.30;;;9.03;;
79759;SDS011;69248;42.138;24.742;2023-05-07T03:07:49;10.82;;;8.18;;
79759;SDS011;69248;42.138;24.742;2023-05-07T03:10:16;18.05;;;8.20;;
79759;SDS011;69248;42.138;24.742;2023-05-07T03:12:44;19.02;;;10.53;;
79759;SDS011;69248;42.138;24.742;2023-05-07T03:15:11;17.82;;;10.80;;
79759;SDS011;69248;42.138;24.742;2023-05-07T03:17:39;16.07;;;10.55;;
79759;SDS011;69248;42.138;24.742;2023-05-07T03:20:07;12.95;;;10.43;;
79759;SDS011;69248;42.138;24.742;2023-05-07T03:22:35;16.25;;;11.78;;
79759;SDS011;69248;42.138;24.742;2023-05-07T03:25:03;11.55;;;10.05;;
79759;SDS011;69248;42.138;24.742;2023-05-07T03:27:31;13.20;;;10.90;;
79759;SDS011;69248;42.138;24.742;2023-05-07T03:29:58;14.70;;;11.05;;
79759;SDS011;69248;42.138;24.742;2023-05-07T03:32:26;15.95;;;11.80;;
79759;SDS011;69248;42.138;24.742;2023-05-07T03:34:53;17.12;;;11.33;;
79759;SDS011;69248;42.138;24.742;2023-05-07T03:37:21;16.15;;;10.75;;
79759;SDS011;69248;42.138;24.742;2023-05-07T03:39:49;14.68;;;12.03;;
79759;SDS011;69248;42.138;24.742;2023-05-07T03:42:16;15.93;;;11.93;;
79759;SDS011;69248;42.138;24.742;2023-05-07T03:44:44;15.20;;;11.78;;
79759;SDS011;69248;42.138;24.742;2023-05-07T03:47:11;14.95;;;11.70;;
79759;SDS011;69248;42.138;24.742;2023-05-07T03:49:41;13.83;;;11.20;;
79759;SDS011;69248;42.138;24.742;2023-05-07T03:52:08;19.62;;;13.00;;
79759;SDS011;69248;42.138;24.742;2023-05-07T03:54:36;17.67;;;12.90;;
79759;SDS011;69248;42.138;24.742;2023-05-07T03:57:03;20.30;;;12.05;;
79759;SDS011;69248;42.138;24.742;2023-05-07T03:59:31;21.30;;;12.10;;
79759;SDS011;69248;42.138;24.742;2023-05-07T04:01:58;17.35;;;12.45;;
79759;SDS011;69248;42.138;24.742;2023-05-07T04:04:26;17.77;;;12.82;;
79759;SDS011;69248;42.138;24.742;2023-05-07T04:06:55;18.23;;;12.45;;
79759;SDS011;69248;42.138;24.742;2023-05-07T04:09:23;17.25;;;11.55;;
79759;SDS011;69248;42.138;24.742;2023-05-07T04:11:50;14.40;;;11.43;;
79759;SDS011;69248;42.138;24.742;2023-05-07T04:14:18;13.28;;;10.75;;
79759;SDS011;69248;42.138;24.742;2023-05-07T04:16:46;14.03;;;10.60;;
79759;SDS011;69248;42.138;24.742;2023-05-07T04:19:13;14.03;;;11.43;;
79759;SDS011;69248;42.138;24.742;2023-05-07T04:21:41;17.62;;;11.78;;
79759;SDS011;69248;42.138;24.742;2023-05-07T04:24:08;15.75;;;11.12;;
79759;SDS011;69248;42.138;24.742;2023-05-07T04:26:36;16.40;;;10.90;;
79759;SDS011;69248;42.138;24.742;2023-05-07T04:29:03;18.65;;;10.85;;
79759;SDS011;69248;42.138;24.742;2023-05-07T04:31:31;15.58;;;10.85;;
79759;SDS011;69248;42.138;24.742;2023-05-07T04:33:59;15.35;;;11.60;;
79759;SDS011;69248;42.138;24.742;2023-05-07T04:36:27;19.10;;;10.38;;
79759;SDS011;69248;42.138;24.742;2023-05-07T04:38:55;15.63;;;10.60;;
79759;SDS011;69248;42.138;24.742;2023-05-07T04:41:22;16.40;;;11.53;;
79759;SDS011;69248;42.138;24.742;2023-05-07T04:43:50;15.65;;;10.13;;
79759;SDS011;69248;42.138;24.742;2023-05-07T04:46:18;12.55;;;10.13;;
79759;SDS011;69248;42.138;24.742;2023-05-07T04:48:45;14.07;;;10.03;;
79759;SDS011;69248;42.138;24.742;2023-05-07T04:51:13;14.45;;;10.20;;
79759;SDS011;69248;42.138;24.742;2023-05-07T04:53:40;12.93;;;11.22;;
79759;SDS011;69248;42.138;24.742;2023-05-07T04:56:08;21.33;;;10.23;;
79759;SDS011;69248;42.138;24.742;2023-05-07T04:58:36;14.30;;;9.78;;
79759;SDS011;69248;42.138;24.742;2023-05-07T05:01:04;14.20;;;9.98;;
79759;SDS011;69248;42.138;24.742;2023-05-07T05:03:31;13.88;;;9.43;;
79759;SDS011;69248;42.138;24.742;2023-05-07T05:05:59;11.08;;;9.63;;
79759;SDS011;69248;42.138;24.742;2023-05-07T05:08:26;12.93;;;9.40;;
79759;SDS011;69248;42.138;24.742;2023-05-07T05:10:54;11.20;;;9.48;;
79759;SDS011;69248;42.138;24.742;2023-05-07T05:13:21;15.63;;;8.70;;
79759;SDS011;69248;42.138;24.742;2023-05-07T05:15:49;13.35;;;9.68;;
79759;SDS011;69248;42.138;24.742;2023-05-07T05:18:16;14.55;;;9.43;;
79759;SDS011;69248;42.138;24.742;2023-05-07T05:20:44;13.90;;;9.28;;
79759;SDS011;69248;42.138;24.742;2023-05-07T05:23:12;13.30;;;9.48;;
79759;SDS011;69248;42.138;24.742;2023-05-07T05:25:39;13.05;;;9.10;;
79759;SDS011;69248;42.138;24.742;2023-05-07T05:28:07;13.80;;;9.30;;
79759;SDS011;69248;42.138;24.742;2023-05-07T05:30:34;16.17;;;9.68;;
79759;SDS011;69248;42.138;24.742;2023-05-07T05:33:02;15.38;;;9.13;;
79759;SDS011;69248;42.138;24.742;2023-05-07T05:35:29;14.63;;;9.40;;
79759;SDS011;69248;42.138;24.742;2023-05-07T05:37:57;12.73;;;9.55;;
79759;SDS011;69248;42.138;24.742;2023-05-07T05:40:25;12.35;;;7.45;;
79759;SDS011;69248;42.138;24.742;2023-05-07T05:42:52;11.15;;;8.00;;
79759;SDS011;69248;42.138;24.742;2023-05-07T05:45:20;11.43;;;8.25;;
79759;SDS011;69248;42.138;24.742;2023-05-07T05:47:47;13.45;;;9.75;;
79759;SDS011;69248;42.138;24.742;2023-05-07T05:50:15;13.38;;;8.63;;
79759;SDS011;69248;42.138;24.742;2023-05-07T05:52:42;15.55;;;9.70;;
79759;SDS011;69248;42.138;24.742;2023-05-07T05:55:10;13.90;;;9.13;;
79759;SDS011;69248;42.138;24.742;2023-05-07T05:57:38;13.43;;;8.70;;
79759;SDS011;69248;42.138;24.742;2023-05-07T06:00:06;11.25;;;7.45;;
79759;SDS011;69248;42.138;24.742;2023-05-07T06:02:34;13.10;;;8.68;;
79759;SDS011;69248;42.138;24.742;2023-05-07T06:05:03;13.38;;;8.13;;
79759;SDS011;69248;42.138;24.742;2023-05-07T06:07:31;12.78;;;6.65;;
79759;SDS011;69248;42.138;24.742;2023-05-07T06:09:58;9.63;;;7.00;;
79759;SDS011;69248;42.138;24.742;2023-05-07T06:12:26;9.60;;;6.90;;
79759;SDS011;69248;42.138;24.742;2023-05-07T06:14:53;10.98;;;6.62;;
79759;SDS011;69248;42.138;24.742;2023-05-07T06:17:21;13.35;;;6.22;;
79759;SDS011;69248;42.138;24.742;2023-05-07T06:19:48;9.45;;;7.20;;
79759;SDS011;69248;42.138;24.742;2023-05-07T06:22:16;14.07;;;8.10;;
79759;SDS011;69248;42.138;24.742;2023-05-07T06:24:43;11.20;;;6.92;;
79759;SDS011;69248;42.138;24.742;2023-05-07T06:27:11;14.00;;;7.10;;
79759;SDS011;69248;42.138;24.742;2023-05-07T06:29:39;7.95;;;6.20;;
79759;SDS011;69248;42.138;24.742;2023-05-07T06:32:10;9.93;;;6.55;;
79759;SDS011;69248;42.138;24.742;2023-05-07T06:34:39;8.88;;;6.80;;
79759;SDS011;69248;42.138;24.742;2023-05-07T06:37:07;12.35;;;7.05;;
79759;SDS011;69248;42.138;24.742;2023-05-07T06:39:34;10.80;;;7.40;;
79759;SDS011;69248;42.138;24.742;2023-05-07T06:42:02;10.98;;;7.40;;
79759;SDS011;69248;42.138;24.742;2023-05-07T06:44:30;13.78;;;7.65;;
79759;SDS011;69248;42.138;24.742;2023-05-07T06:46:58;11.18;;;7.97;;
79759;SDS011;69248;42.138;24.742;2023-05-07T06:49:25;11.28;;;7.33;;
79759;SDS011;69248;42.138;24.742;2023-05-07T06:51:53;12.90;;;7.55;;
79759;SDS011;69248;42.138;24.742;2023-05-07T06:54:21;11.68;;;7.40;;
79759;SDS011;69248;42.138;24.742;2023-05-07T06:56:49;11.00;;;6.17;;
79759;SDS011;69248;42.138;24.742;2023-05-07T06:59:17;11.48;;;7.30;;
79759;SDS011;69248;42.138;24.742;2023-05-07T07:01:45;14.07;;;7.75;;
79759;SDS011;69248;42.138;24.742;2023-05-07T07:04:12;13.05;;;7.03;;
79759;SDS011;69248;42.138;24.742;2023-05-07T07:06:40;10.85;;;7.08;;
79759;SDS011;69248;42.138;24.742;2023-05-07T07:09:07;12.73;;;6.40;;
79759;SDS011;69248;42.138;24.742;2023-05-07T07:11:35;8.70;;;6.00;;
79759;SDS011;69248;42.138;24.742;2023-05-07T07:14:02;12.98;;;7.67;;
79759;SDS011;69248;42.138;24.742;2023-05-07T07:16:31;8.93;;;6.40;;
79759;SDS011;69248;42.138;24.742;2023-05-07T07:18:59;8.78;;;7.33;;
79759;SDS011;69248;42.138;24.742;2023-05-07T07:21:26;8.38;;;6.95;;
79759;SDS011;69248;42.138;24.742;2023-05-07T07:23:54;11.35;;;7.97;;
79759;SDS011;69248;42.138;24.742;2023-05-07T07:26:21;10.58;;;7.60;;
79759;SDS011;69248;42.138;24.742;2023-05-07T07:28:49;12.35;;;7.85;;
79759;SDS011;69248;42.138;24.742;2023-05-07T07:31:16;13.55;;;7.08;;
79759;SDS011;69248;42.138;24.742;2023-05-07T07:33:44;14.60;;;8.08;;
79759;SDS011;69248;42.138;24.742;2023-05-07T07:36:11;12.35;;;7.95;;
79759;SDS011;69248;42.138;24.742;2023-05-07T07:38:39;12.47;;;7.42;;
79759;SDS011;69248;42.138;24.742;2023-05-07T07:41:11;14.65;;;8.28;;
79759;SDS011;69248;42.138;24.742;2023-05-07T07:43:37;15.55;;;7.15;;
79759;SDS011;69248;42.138;24.742;2023-05-07T07:46:04;9.85;;;6.62;;
79759;SDS011;69248;42.138;24.742;2023-05-07T07:48:32;12.50;;;7.53;;
79759;SDS011;69248;42.138;24.742;2023-05-07T07:51:00;14.50;;;7.95;;
79759;SDS011;69248;42.138;24.742;2023-05-07T07:53:27;9.78;;;7.17;;
79759;SDS011;69248;42.138;24.742;2023-05-07T07:55:55;14.03;;;8.03;;
79759;SDS011;69248;42.138;24.742;2023-05-07T07:58:22;14.55;;;7.42;;
79759;SDS011;69248;42.138;24.742;2023-05-07T08:00:51;9.73;;;7.10;;
79759;SDS011;69248;42.138;24.742;2023-05-07T08:03:21;13.00;;;7.35;;
79759;SDS011;69248;42.138;24.742;2023-05-07T08:05:48;11.48;;;7.67;;
79759;SDS011;69248;42.138;24.742;2023-05-07T08:08:16;10.13;;;6.05;;
79759;SDS011;69248;42.138;24.742;2023-05-07T08:10:44;9.90;;;6.78;;
79759;SDS011;69248;42.138;24.742;2023-05-07T08:13:12;10.00;;;7.10;;
79759;SDS011;69248;42.138;24.742;2023-05-07T08:15:39;10.10;;;6.45;;
79759;SDS011;69248;42.138;24.742;2023-05-07T08:18:07;9.25;;;6.58;;
79759;SDS011;69248;42.138;24.742;2023-05-07T08:20:35;8.50;;;5.90;;
79759;SDS011;69248;42.138;24.742;2023-05-07T08:23:04;6.53;;;5.83;;
79759;SDS011;69248;42.138;24.742;2023-05-07T08:25:33;9.90;;;6.42;;
79759;SDS011;69248;42.138;24.742;2023-05-07T08:28:01;11.05;;;5.65;;
79759;SDS011;69248;42.138;24.742;2023-05-07T08:30:29;8.95;;;4.55;;
79759;SDS011;69248;42.138;24.742;2023-05-07T08:32:56;11.80;;;5.30;;
79759;SDS011;69248;42.138;24.742;2023-05-07T08:35:24;5.65;;;4.65;;
79759;SDS011;69248;42.138;24.742;2023-05-07T08:37:52;7.62;;;4.60;;
79759;SDS011;69248;42.138;24.742;2023-05-07T08:40:24;6.95;;;4.72;;
79759;SDS011;69248;42.138;24.742;2023-05-07T08:42:53;12.40;;;5.15;;
79759;SDS011;69248;42.138;24.742;2023-05-07T08:45:21;5.08;;;4.00;;
79759;SDS011;69248;42.138;24.742;2023-05-07T08:47:54;5.97;;;4.03;;
79759;SDS011;69248;42.138;24.742;2023-05-07T08:50:22;5.30;;;4.33;;
79759;SDS011;69248;42.138;24.742;2023-05-07T08:52:50;10.25;;;5.12;;
79759;SDS011;69248;42.138;24.742;2023-05-07T08:55:18;13.35;;;5.05;;
79759;SDS011;69248;42.138;24.742;2023-05-07T08:57:46;9.65;;;4.30;;
79759;SDS011;69248;42.138;24.742;2023-05-07T09:00:14;7.28;;;4.58;;
79759;SDS011;69248;42.138;24.742;2023-05-07T09:02:42;7.67;;;3.75;;
79759;SDS011;69248;42.138;24.742;2023-05-07T09:05:09;8.95;;;3.77;;
79759;SDS011;69248;42.138;24.742;2023-05-07T09:07:37;6.03;;;4.25;;
79759;SDS011;69248;42.138;24.742;2023-05-07T09:10:05;5.42;;;4.10;;
79759;SDS011;69248;42.138;24.742;2023-05-07T09:12:33;6.15;;;3.60;;
79759;SDS011;69248;42.138;24.742;2023-05-07T09:15:05;5.47;;;3.72;;
79759;SDS011;69248;42.138;24.742;2023-05-07T09:17:33;7.80;;;3.50;;
79759;SDS011;69248;42.138;24.742;2023-05-07T09:20:04;6.67;;;3.27;;
79759;SDS011;69248;42.138;24.742;2023-05-07T09:24:59;7.25;;;3.20;;
79759;SDS011;69248;42.138;24.742;2023-05-07T09:27:27;6.78;;;3.90;;
79759;SDS011;69248;42.138;24.742;2023-05-07T09:29:54;6.08;;;3.17;;
79759;SDS011;69248;42.138;24.742;2023-05-07T09:32:22;7.03;;;3.12;;
79759;SDS011;69248;42.138;24.742;2023-05-07T09:34:52;9.00;;;3.10;;
79759;SDS011;69248;42.138;24.742;2023-05-07T09:37:27;6.03;;;3.58;;
79759;SDS011;69248;42.138;24.742;2023-05-07T09:39:55;7.55;;;3.35;;
79759;SDS011;69248;42.138;24.742;2023-05-07T09:42:23;5.30;;;2.83;;
79759;SDS011;69248;42.138;24.742;2023-05-07T09:44:52;8.25;;;3.98;;
79759;SDS011;69248;42.138;24.742;2023-05-07T09:47:20;5.67;;;3.10;;
79759;SDS011;69248;42.138;24.742;2023-05-07T09:49:50;7.00;;;4.78;;
79759;SDS011;69248;42.138;24.742;2023-05-07T09:52:21;7.57;;;3.63;;
79759;SDS011;69248;42.138;24.742;2023-05-07T09:54:50;8.53;;;4.20;;
79759;SDS011;69248;42.138;24.742;2023-05-07T09:57:20;4.92;;;3.20;;
79759;SDS011;69248;42.138;24.742;2023-05-07T09:59:49;8.00;;;3.17;;
79759;SDS011;69248;42.138;24.742;2023-05-07T10:02:18;7.50;;;3.50;;
79759;SDS011;69248;42.138;24.742;2023-05-07T10:04:47;6.40;;;3.42;;
79759;SDS011;69248;42.138;24.742;2023-05-07T10:07:16;3.85;;;3.12;;
79759;SDS011;69248;42.138;24.742;2023-05-07T10:09:43;6.65;;;3.72;;
79759;SDS011;69248;42.138;24.742;2023-05-07T10:12:12;5.25;;;4.05;;
79759;SDS011;69248;42.138;24.742;2023-05-07T10:14:41;6.78;;;2.90;;
79759;SDS011;69248;42.138;24.742;2023-05-07T10:17:11;6.30;;;3.33;;
79759;SDS011;69248;42.138;24.742;2023-05-07T10:19:40;7.45;;;3.60;;
79759;SDS011;69248;42.138;24.742;2023-05-07T10:22:08;6.08;;;3.50;;
79759;SDS011;69248;42.138;24.742;2023-05-07T10:24:37;6.22;;;3.70;;
79759;SDS011;69248;42.138;24.742;2023-05-07T10:27:06;9.35;;;4.17;;
79759;SDS011;69248;42.138;24.742;2023-05-07T10:29:58;5.12;;;3.40;;
79759;SDS011;69248;42.138;24.742;2023-05-07T10:33:01;8.68;;;4.10;;
79759;SDS011;69248;42.138;24.742;2023-05-07T10:35:18;9.55;;;5.00;;
79759;SDS011;69248;42.138;24.742;2023-05-07T10:37:48;5.58;;;3.50;;
79759;SDS011;69248;42.138;24.742;2023-05-07T10:40:16;5.58;;;3.42;;
79759;SDS011;69248;42.138;24.742;2023-05-07T10:42:55;4.97;;;3.50;;
79759;SDS011;69248;42.138;24.742;2023-05-07T10:45:28;5.42;;;3.20;;
79759;SDS011;69248;42.138;24.742;2023-05-07T10:50:38;4.67;;;3.22;;
79759;SDS011;69248;42.138;24.742;2023-05-07T10:55:49;5.50;;;2.92;;
79759;SDS011;69248;42.138;24.742;2023-05-07T11:00:56;6.30;;;3.20;;
79759;SDS011;69248;42.138;24.742;2023-05-07T11:03:25;4.28;;;3.02;;
79759;SDS011;69248;42.138;24.742;2023-05-07T11:06:12;6.08;;;3.65;;
79759;SDS011;69248;42.138;24.742;2023-05-07T11:17:09;7.17;;;3.20;;
79759;SDS011;69248;42.138;24.742;2023-05-07T11:25:05;4.85;;;2.90;;
79759;SDS011;69248;42.138;24.742;2023-05-07T11:27:33;4.15;;;2.90;;
79759;SDS011;69248;42.138;24.742;2023-05-07T11:30:01;4.00;;;2.72;;
79759;SDS011;69248;42.138;24.742;2023-05-07T11:32:30;5.55;;;3.17;;
79759;SDS011;69248;42.138;24.742;2023-05-07T11:34:59;7.70;;;3.45;;
79759;SDS011;69248;42.138;24.742;2023-05-07T11:37:27;2.90;;;2.40;;
79759;SDS011;69248;42.138;24.742;2023-05-07T11:40:06;7.40;;;2.92;;
79759;SDS011;69248;42.138;24.742;2023-05-07T11:42:37;4.60;;;2.87;;
79759;SDS011;69248;42.138;24.742;2023-05-07T11:45:06;6.87;;;2.90;;
79759;SDS011;69248;42.138;24.742;2023-05-07T11:47:34;4.28;;;2.70;;
79759;SDS011;69248;42.138;24.742;2023-05-07T11:50:03;4.30;;;3.10;;
79759;SDS011;69248;42.138;24.742;2023-05-07T11:55:00;3.45;;;2.85;;
79759;SDS011;69248;42.138;24.742;2023-05-07T11:57:32;6.65;;;2.80;;
79759;SDS011;69248;42.138;24.742;2023-05-07T12:00:00;9.15;;;2.85;;
79759;SDS011;69248;42.138;24.742;2023-05-07T12:02:30;5.87;;;3.02;;
79759;SDS011;69248;42.138;24.742;2023-05-07T12:04:59;5.05;;;3.00;;
79759;SDS011;69248;42.138;24.742;2023-05-07T12:07:28;5.23;;;3.00;;
79759;SDS011;69248;42.138;24.742;2023-05-07T12:09:57;4.37;;;3.10;;
79759;SDS011;69248;42.138;24.742;2023-05-07T12:12:25;11.97;;;2.75;;
79759;SDS011;69248;42.138;24.742;2023-05-07T12:14:52;7.58;;;3.35;;
79759;SDS011;69248;42.138;24.742;2023-05-07T12:17:20;2.77;;;2.58;;
79759;SDS011;69248;42.138;24.742;2023-05-07T12:19:48;7.47;;;3.45;;
79759;SDS011;69248;42.138;24.742;2023-05-07T12:22:16;5.08;;;3.12;;
79759;SDS011;69248;42.138;24.742;2023-05-07T12:24:48;6.28;;;2.65;;
79759;SDS011;69248;42.138;24.742;2023-05-07T12:27:15;7.08;;;2.62;;
79759;SDS011;69248;42.138;24.742;2023-05-07T12:29:44;5.55;;;2.72;;
79759;SDS011;69248;42.138;24.742;2023-05-07T12:32:16;10.15;;;3.02;;
79759;SDS011;69248;42.138;24.742;2023-05-07T12:34:46;7.40;;;4.20;;
79759;SDS011;69248;42.138;24.742;2023-05-07T12:37:15;4.85;;;3.12;;
79759;SDS011;69248;42.138;24.742;2023-05-07T12:39:49;7.03;;;3.40;;
79759;SDS011;69248;42.138;24.742;2023-05-07T12:42:21;5.87;;;2.55;;
79759;SDS011;69248;42.138;24.742;2023-05-07T12:44:50;5.05;;;2.95;;
79759;SDS011;69248;42.138;24.742;2023-05-07T12:47:18;5.58;;;2.75;;
79759;SDS011;69248;42.138;24.742;2023-05-07T12:49:47;7.37;;;3.00;;
79759;SDS011;69248;42.138;24.742;2023-05-07T12:52:14;4.45;;;2.58;;
79759;SDS011;69248;42.138;24.742;2023-05-07T12:54:42;4.70;;;2.90;;
79759;SDS011;69248;42.138;24.742;2023-05-07T12:57:11;6.40;;;3.50;;
79759;SDS011;69248;42.138;24.742;2023-05-07T12:59:39;6.50;;;2.90;;
79759;SDS011;69248;42.138;24.742;2023-05-07T13:02:08;7.67;;;2.65;;
79759;SDS011;69248;42.138;24.742;2023-05-07T13:04:36;3.12;;;2.70;;
79759;SDS011;69248;42.138;24.742;2023-05-07T13:07:03;3.25;;;2.42;;
79759;SDS011;69248;42.138;24.742;2023-05-07T13:09:31;3.92;;;2.67;;
79759;SDS011;69248;42.138;24.742;2023-05-07T13:11:58;3.50;;;2.52;;
79759;SDS011;69248;42.138;24.742;2023-05-07T13:14:29;4.85;;;2.77;;
79759;SDS011;69248;42.138;24.742;2023-05-07T13:16:56;7.33;;;2.83;;
79759;SDS011;69248;42.138;24.742;2023-05-07T13:19:24;3.20;;;2.50;;
79759;SDS011;69248;42.138;24.742;2023-05-07T13:21:51;7.00;;;2.80;;
79759;SDS011;69248;42.138;24.742;2023-05-07T13:24:20;5.60;;;2.50;;
79759;SDS011;69248;42.138;24.742;2023-05-07T13:26:47;2.95;;;2.25;;
79759;SDS011;69248;42.138;24.742;2023-05-07T13:29:15;10.60;;;3.08;;
79759;SDS011;69248;42.138;24.742;2023-05-07T13:31:43;4.85;;;2.90;;
79759;SDS011;69248;42.138;24.742;2023-05-07T13:34:10;4.95;;;3.30;;
79759;SDS011;69248;42.138;24.742;2023-05-07T13:36:38;6.08;;;2.67;;
79759;SDS011;69248;42.138;24.742;2023-05-07T13:39:07;5.97;;;3.45;;
79759;SDS011;69248;42.138;24.742;2023-05-07T13:41:35;5.70;;;3.05;;
79759;SDS011;69248;42.138;24.742;2023-05-07T13:44:02;4.97;;;2.75;;
79759;SDS011;69248;42.138;24.742;2023-05-07T13:46:30;3.65;;;3.35;;
79759;SDS011;69248;42.138;24.742;2023-05-07T13:48:58;5.03;;;3.60;;
79759;SDS011;69248;42.138;24.742;2023-05-07T13:51:26;5.22;;;3.10;;
79759;SDS011;69248;42.138;24.742;2023-05-07T13:53:53;2.98;;;2.58;;
79759;SDS011;69248;42.138;24.742;2023-05-07T13:56:21;4.03;;;3.30;;
79759;SDS011;69248;42.138;24.742;2023-05-07T13:58:48;8.05;;;3.42;;
79759;SDS011;69248;42.138;24.742;2023-05-07T14:01:16;6.62;;;3.55;;
79759;SDS011;69248;42.138;24.742;2023-05-07T14:03:43;5.90;;;4.37;;
79759;SDS011;69248;42.138;24.742;2023-05-07T14:06:11;7.37;;;4.12;;
79759;SDS011;69248;42.138;24.742;2023-05-07T14:08:39;7.20;;;2.95;;
79759;SDS011;69248;42.138;24.742;2023-05-07T14:11:06;3.00;;;2.67;;
79759;SDS011;69248;42.138;24.742;2023-05-07T14:13:34;3.20;;;2.70;;
79759;SDS011;69248;42.138;24.742;2023-05-07T14:16:03;9.15;;;4.70;;
79759;SDS011;69248;42.138;24.742;2023-05-07T14:18:31;3.37;;;2.80;;
79759;SDS011;69248;42.138;24.742;2023-05-07T14:23:26;2.87;;;2.42;;
79759;SDS011;69248;42.138;24.742;2023-05-07T14:25:54;2.70;;;2.27;;
79759;SDS011;69248;42.138;24.742;2023-05-07T14:28:23;5.85;;;2.92;;
79759;SDS011;69248;42.138;24.742;2023-05-07T14:30:50;4.50;;;2.50;;
79759;SDS011;69248;42.138;24.742;2023-05-07T14:33:18;5.28;;;2.30;;
79759;SDS011;69248;42.138;24.742;2023-05-07T14:35:45;5.20;;;2.22;;
79759;SDS011;69248;42.138;24.742;2023-05-07T14:38:14;4.83;;;2.00;;
79759;SDS011;69248;42.138;24.742;2023-05-07T14:40:42;3.22;;;2.52;;
79759;SDS011;69248;42.138;24.742;2023-05-07T14:43:09;10.25;;;2.58;;
79759;SDS011;69248;42.138;24.742;2023-05-07T14:45:37;2.55;;;2.35;;
79759;SDS011;69248;42.138;24.742;2023-05-07T14:48:04;6.00;;;2.62;;
79759;SDS011;69248;42.138;24.742;2023-05-07T14:50:32;7.15;;;2.37;;
79759;SDS011;69248;42.138;24.742;2023-05-07T14:52:59;4.72;;;2.30;;
79759;SDS011;69248;42.138;24.742;2023-05-07T14:55:27;2.47;;;2.10;;
79759;SDS011;69248;42.138;24.742;2023-05-07T14:57:55;4.58;;;2.17;;
79759;SDS011;69248;42.138;24.742;2023-05-07T15:00:22;4.78;;;2.20;;